createdAt,value
2023-05-05T00:01:35.816Z,45.08
2023-05-05T00:04:03.003Z,45.06
2023-05-05T00:06:29.882Z,45.23
2023-05-05T00:08:58.140Z,45.02
2023-05-05T00:11:25.933Z,45.43
2023-05-05T00:13:52.928Z,45.69
2023-05-05T00:16:19.945Z,45.72
2023-05-05T00:18:47.250Z,45.47
2023-05-05T00:21:14.213Z,45.65
2023-05-05T00:23:41.150Z,45.68
2023-05-05T00:26:09.418Z,45.68
2023-05-05T00:28:36.514Z,45.67
2023-05-05T00:31:03.436Z,45.78
2023-05-05T00:33:30.532Z,45.47
2023-05-05T00:35:57.385Z,45.98
2023-05-05T00:38:24.259Z,45.99
2023-05-05T00:40:51.140Z,46.12
2023-05-05T00:43:19.293Z,45.83
2023-05-05T00:45:47.896Z,46.03
2023-05-05T00:48:16.871Z,46.14
2023-05-05T00:50:44.969Z,46.12
2023-05-05T00:53:13.487Z,46.20
2023-05-05T00:55:41.442Z,46.21
2023-05-05T00:58:09.924Z,45.86
2023-05-05T01:00:38.132Z,46.13
2023-05-05T01:03:05.798Z,46.35
2023-05-05T01:05:43.406Z,46.53
2023-05-05T01:08:33.301Z,46.83
2023-05-05T01:11:11.828Z,46.99
2023-05-05T01:13:52.513Z,46.81
2023-05-05T01:16:26.769Z,46.82
2023-05-05T01:19:01.253Z,46.71
2023-05-05T01:21:35.870Z,46.71
2023-05-05T01:24:42.993Z,47.34
2023-05-05T01:27:48.210Z,47.53
2023-05-05T01:30:37.928Z,47.06
2023-05-05T01:33:14.450Z,47.24
2023-05-05T01:35:47.061Z,47.21
2023-05-05T01:38:19.180Z,46.84
2023-05-05T01:40:56.200Z,47.10
2023-05-05T01:43:27.610Z,47.19
2023-05-05T01:45:56.494Z,46.75
2023-05-05T01:48:25.895Z,47.16
2023-05-05T01:50:54.064Z,46.82
2023-05-05T01:53:23.930Z,46.62
2023-05-05T01:55:52.850Z,46.67
2023-05-05T01:58:22.115Z,46.81
2023-05-05T02:00:50.851Z,46.42
2023-05-05T02:03:22.719Z,46.54
2023-05-05T02:05:53.743Z,46.76
2023-05-05T02:08:22.204Z,46.47
2023-05-05T02:10:50.445Z,46.73
2023-05-05T02:13:20.420Z,46.75
2023-05-05T02:15:49.661Z,46.73
2023-05-05T02:18:18.537Z,46.92
2023-05-05T02:20:46.951Z,46.78
2023-05-05T02:23:15.163Z,46.78
2023-05-05T02:25:46.076Z,46.75
2023-05-05T02:28:19.972Z,47.12
2023-05-05T02:30:57.444Z,46.83
2023-05-05T02:33:28.945Z,46.99
2023-05-05T02:35:59.434Z,47.02
2023-05-05T02:38:30.493Z,47.05
2023-05-05T02:41:01.360Z,46.90
2023-05-05T02:43:33.873Z,46.88
2023-05-05T02:46:00.967Z,46.82
2023-05-05T02:48:29.602Z,46.97
2023-05-05T02:50:57.096Z,47.32
2023-05-05T02:53:27.877Z,46.90
2023-05-05T02:56:05.506Z,47.06
2023-05-05T02:58:42.932Z,46.94
2023-05-05T03:01:28.028Z,47.03
2023-05-05T03:04:06.223Z,47.10
2023-05-05T03:06:42.451Z,46.84
2023-05-05T03:09:15.812Z,46.89
2023-05-05T03:11:49.833Z,47.05
2023-05-05T03:14:21.040Z,47.25
2023-05-05T03:16:49.755Z,46.86
2023-05-05T03:19:20.155Z,46.76
2023-05-05T03:21:48.305Z,46.83
2023-05-05T03:24:18.719Z,46.75
2023-05-05T03:26:47.810Z,46.94
2023-05-05T03:29:15.760Z,46.82
2023-05-05T03:31:42.853Z,47.13
2023-05-05T03:34:09.781Z,47.06
2023-05-05T03:36:36.839Z,47.26
2023-05-05T03:39:03.905Z,47.18
2023-05-05T03:41:32.224Z,47.09
2023-05-05T03:43:59.255Z,47.13
2023-05-05T03:46:26.266Z,47.22
2023-05-05T03:48:53.217Z,47.27
2023-05-05T03:51:20.176Z,47.24
2023-05-05T03:53:47.450Z,47.45
2023-05-05T03:56:14.324Z,47.61
2023-05-05T03:58:42.562Z,47.54
2023-05-05T04:01:09.547Z,47.46
2023-05-05T04:03:36.531Z,47.44
2023-05-05T04:06:03.846Z,47.50
2023-05-05T04:08:30.726Z,47.26
2023-05-05T04:10:57.648Z,47.70
2023-05-05T04:13:24.684Z,47.51
2023-05-05T04:15:52.945Z,47.30
2023-05-05T04:18:19.804Z,47.30
2023-05-05T04:20:47.155Z,47.35
2023-05-05T04:23:14.032Z,47.31
2023-05-05T04:25:41.155Z,47.20
2023-05-05T04:28:08.048Z,47.07
2023-05-05T04:30:34.938Z,47.29
2023-05-05T04:33:03.327Z,47.22
2023-05-05T04:35:30.559Z,46.59
2023-05-05T04:37:57.414Z,46.95
2023-05-05T04:40:26.078Z,46.80
2023-05-05T04:42:53.115Z,46.77
2023-05-05T04:45:20.139Z,46.73
2023-05-05T04:47:47.210Z,46.59
2023-05-05T04:50:16.483Z,46.27
2023-05-05T04:52:43.367Z,45.99
2023-05-05T04:55:11.432Z,46.00
2023-05-05T04:57:38.486Z,45.62
2023-05-05T05:00:08.166Z,45.52
2023-05-05T05:02:37.404Z,45.43
2023-05-05T05:05:05.287Z,45.38
2023-05-05T05:07:33.615Z,45.00
2023-05-05T05:10:00.702Z,44.83
2023-05-05T05:12:27.545Z,44.65
2023-05-05T05:14:54.424Z,44.62
2023-05-05T05:17:22.464Z,44.43
2023-05-05T05:19:49.375Z,44.61
2023-05-05T05:22:16.284Z,44.49
2023-05-05T05:24:44.519Z,44.38
2023-05-05T05:27:11.971Z,44.23
2023-05-05T05:29:38.972Z,44.59
2023-05-05T05:32:06.103Z,44.61
2023-05-05T05:34:33.072Z,44.68
2023-05-05T05:36:59.946Z,44.79
2023-05-05T05:39:27.038Z,44.73
2023-05-05T05:41:55.394Z,44.84
2023-05-05T05:44:22.327Z,44.94
2023-05-05T05:46:49.439Z,44.77
2023-05-05T05:49:16.662Z,44.71
2023-05-05T05:51:48.763Z,44.57
2023-05-05T05:54:15.662Z,44.13
2023-05-05T05:56:42.583Z,43.53
2023-05-05T05:59:10.776Z,43.15
2023-05-05T06:01:37.749Z,43.06
2023-05-05T06:04:04.847Z,42.49
2023-05-05T06:06:31.933Z,42.14
2023-05-05T06:08:58.894Z,41.78
2023-05-05T06:11:26.038Z,41.67
2023-05-05T06:13:52.925Z,41.53
2023-05-05T06:16:21.248Z,41.46
2023-05-05T06:18:48.165Z,41.28
2023-05-05T06:21:15.182Z,41.43
2023-05-05T06:23:42.211Z,41.38
2023-05-05T06:26:09.105Z,41.11
2023-05-05T06:28:36.065Z,41.11
2023-05-05T06:31:03.074Z,40.73
2023-05-05T06:33:31.313Z,40.87
2023-05-05T06:35:58.201Z,40.88
2023-05-05T06:38:25.172Z,41.04
2023-05-05T06:40:52.055Z,40.93
2023-05-05T06:43:18.957Z,40.55
2023-05-05T06:45:45.986Z,40.54
2023-05-05T06:48:12.933Z,40.54
2023-05-05T06:50:41.331Z,40.52
2023-05-05T06:53:08.386Z,40.41
2023-05-05T06:55:35.364Z,40.10
2023-05-05T06:58:02.580Z,39.93
2023-05-05T07:00:29.499Z,39.98
2023-05-05T07:03:02.673Z,39.58
2023-05-05T07:05:33.161Z,39.86
2023-05-05T07:08:01.378Z,39.60
2023-05-05T07:10:28.418Z,39.72
2023-05-05T07:12:55.459Z,39.88
2023-05-05T07:15:28.696Z,40.06
2023-05-05T07:17:57.026Z,40.00
2023-05-05T07:20:24.683Z,40.04
2023-05-05T07:22:51.666Z,39.83
2023-05-05T07:25:20.210Z,40.00
2023-05-05T07:27:47.101Z,39.87
2023-05-05T07:30:18.158Z,39.94
2023-05-05T07:32:46.149Z,40.21
2023-05-05T07:35:13.693Z,40.73
2023-05-05T07:37:40.638Z,40.86
2023-05-05T07:40:09.172Z,41.64
2023-05-05T07:42:37.868Z,42.33
2023-05-05T07:45:06.717Z,42.81
2023-05-05T07:47:33.868Z,43.13
2023-05-05T07:50:01.407Z,43.34
2023-05-05T07:52:44.153Z,44.21
2023-05-05T07:55:15.175Z,44.89
2023-05-05T07:57:43.474Z,45.74
2023-05-05T08:00:13.312Z,45.32
2023-05-05T08:02:41.290Z,45.66
2023-05-05T08:05:09.422Z,46.24
2023-05-05T08:07:40.807Z,46.51
2023-05-05T08:10:10.218Z,46.48
2023-05-05T08:12:37.375Z,47.22
2023-05-05T08:15:07.634Z,46.88
2023-05-05T08:17:50.087Z,46.97
2023-05-05T08:20:18.314Z,46.71
2023-05-05T08:22:46.855Z,46.45
2023-05-05T08:25:14.660Z,45.67
2023-05-05T08:27:43.174Z,43.13
2023-05-05T08:30:12.299Z,42.02
2023-05-05T08:32:39.327Z,40.26
2023-05-05T08:35:07.886Z,39.66
2023-05-05T08:37:35.217Z,38.47
2023-05-05T08:40:02.176Z,38.43
2023-05-05T08:42:37.746Z,38.13
2023-05-05T08:45:08.522Z,38.25
2023-05-05T08:47:38.061Z,37.92
2023-05-05T08:50:09.727Z,38.40
2023-05-05T08:52:41.930Z,37.57
2023-05-05T08:55:17.857Z,38.90
2023-05-05T08:57:53.866Z,38.88
2023-05-05T09:00:21.449Z,39.28
2023-05-05T09:02:50.560Z,39.89
2023-05-05T09:05:18.601Z,39.71
2023-05-05T09:07:49.233Z,39.86
2023-05-05T09:10:16.364Z,40.52
2023-05-05T09:12:43.770Z,41.22
2023-05-05T09:15:13.308Z,40.75
2023-05-05T09:17:43.382Z,41.79
2023-05-05T09:20:14.359Z,42.37
2023-05-05T09:22:44.683Z,42.82
2023-05-05T09:25:13.863Z,44.29
2023-05-05T09:27:43.594Z,45.34
2023-05-05T09:30:14.215Z,45.48
2023-05-05T09:32:50.662Z,45.63
2023-05-05T09:35:20.444Z,45.25
2023-05-05T09:37:48.120Z,45.38
2023-05-05T09:40:17.942Z,45.51
2023-05-05T09:42:45.348Z,45.41
2023-05-05T09:45:27.272Z,45.52
2023-05-05T09:47:59.055Z,44.80
2023-05-05T09:50:30.952Z,44.34
2023-05-05T09:53:01.115Z,44.66
2023-05-05T09:55:28.898Z,44.93
2023-05-05T09:57:56.089Z,44.84
2023-05-05T10:00:37.714Z,44.53
2023-05-05T10:03:04.691Z,44.61
2023-05-05T10:05:33.042Z,43.80
2023-05-05T10:08:13.502Z,42.19
2023-05-05T10:10:53.901Z,40.45
2023-05-05T10:13:23.093Z,36.98
2023-05-05T10:15:52.200Z,36.16
2023-05-05T10:18:22.193Z,33.39
2023-05-05T10:20:57.300Z,32.53
2023-05-05T10:23:31.922Z,32.66
2023-05-05T10:26:03.641Z,32.61
2023-05-05T10:28:37.092Z,32.75
2023-05-05T10:31:24.242Z,31.17
2023-05-05T10:33:58.404Z,32.11
2023-05-05T10:36:29.344Z,31.76
2023-05-05T10:38:57.829Z,31.56
2023-05-05T10:41:26.627Z,31.26
2023-05-05T10:43:57.381Z,31.51
2023-05-05T10:46:26.724Z,30.64
2023-05-05T10:49:01.730Z,30.30
2023-05-05T10:51:45.698Z,29.31
2023-05-05T10:54:24.507Z,28.77
2023-05-05T10:56:52.367Z,27.02
2023-05-05T10:59:42.929Z,27.71
2023-05-05T11:02:27.395Z,25.52
2023-05-05T11:05:16.734Z,25.00
2023-05-05T11:07:49.102Z,25.11
2023-05-05T11:10:19.676Z,25.31
2023-05-05T11:13:19.076Z,25.29
2023-05-05T11:15:46.290Z,25.56
2023-05-05T11:18:36.540Z,24.35
2023-05-05T11:21:15.988Z,23.17
2023-05-05T11:23:50.832Z,23.92
2023-05-05T11:26:48.855Z,23.54
2023-05-05T11:29:15.818Z,23.34
2023-05-05T11:31:42.761Z,23.56
2023-05-05T11:34:28.954Z,22.83
2023-05-05T11:37:05.645Z,22.23
2023-05-05T11:39:59.254Z,22.38
2023-05-05T11:42:27.103Z,21.93
2023-05-05T11:44:54.861Z,20.74
2023-05-05T11:47:30.964Z,20.93
2023-05-05T11:49:58.646Z,22.11
2023-05-05T11:52:30.267Z,22.70
2023-05-05T11:55:02.244Z,22.91
2023-05-05T11:57:30.767Z,22.37
2023-05-05T12:00:00.831Z,22.46
2023-05-05T12:02:29.969Z,21.93
2023-05-05T12:04:58.949Z,22.12
2023-05-05T12:07:29.419Z,22.81
2023-05-05T12:09:56.947Z,23.23
2023-05-05T12:12:36.967Z,23.06
2023-05-05T12:15:05.411Z,23.32
2023-05-05T12:17:39.713Z,22.82
2023-05-05T12:20:08.962Z,23.46
2023-05-05T12:22:36.387Z,24.13
2023-05-05T12:25:06.315Z,24.45
2023-05-05T12:27:35.420Z,24.36
2023-05-05T12:30:15.174Z,24.16
2023-05-05T12:32:43.335Z,24.43
2023-05-05T12:35:12.063Z,24.15
2023-05-05T12:37:39.388Z,23.81
2023-05-05T12:40:08.733Z,23.45
2023-05-05T12:42:40.944Z,23.71
2023-05-05T12:45:17.600Z,23.13
2023-05-05T12:47:44.711Z,24.09
2023-05-05T12:50:11.783Z,23.95
2023-05-05T12:52:43.912Z,23.62
2023-05-05T12:55:12.108Z,23.30
2023-05-05T12:58:00.702Z,23.53
2023-05-05T13:00:29.077Z,23.38
2023-05-05T13:02:56.810Z,24.69
2023-05-05T13:05:32.470Z,24.80
2023-05-05T13:07:59.789Z,24.95
2023-05-05T13:10:28.022Z,24.90
2023-05-05T13:12:57.649Z,25.21
2023-05-05T13:15:24.905Z,24.83
2023-05-05T13:17:59.962Z,24.79
2023-05-05T13:20:27.073Z,25.41
2023-05-05T13:22:54.158Z,25.23
2023-05-05T13:25:21.132Z,25.79
2023-05-05T13:27:48.021Z,25.72
2023-05-05T13:30:16.593Z,25.70
2023-05-05T13:32:43.570Z,26.14
2023-05-05T13:35:11.659Z,25.75
2023-05-05T13:37:41.358Z,26.17
2023-05-05T13:40:10.699Z,27.02
2023-05-05T13:42:37.586Z,27.23
2023-05-05T13:45:05.803Z,27.43
2023-05-05T13:47:34.113Z,27.47
2023-05-05T13:50:01.827Z,27.44
2023-05-05T13:52:29.890Z,27.18
2023-05-05T13:54:58.610Z,27.28
2023-05-05T13:57:25.728Z,27.71
2023-05-05T13:59:52.690Z,27.73
2023-05-05T14:02:19.557Z,27.78
2023-05-05T14:04:47.881Z,27.67
2023-05-05T14:07:14.847Z,28.33
2023-05-05T14:09:41.723Z,28.51
2023-05-05T14:12:08.589Z,28.67
2023-05-05T14:14:36.007Z,28.85
2023-05-05T14:17:03.019Z,29.23
2023-05-05T14:19:29.937Z,29.36
2023-05-05T14:21:58.343Z,29.51
2023-05-05T14:24:25.902Z,30.02
2023-05-05T14:26:52.822Z,30.25
2023-05-05T14:29:19.897Z,30.27
2023-05-05T14:31:46.781Z,30.25
2023-05-05T14:34:13.834Z,29.93
2023-05-05T14:36:41.192Z,29.88
2023-05-05T14:39:09.494Z,29.78
2023-05-05T14:41:36.320Z,30.21
2023-05-05T14:44:03.692Z,30.31
2023-05-05T14:46:31.816Z,30.24
2023-05-05T14:48:58.840Z,30.34
2023-05-05T14:51:25.961Z,30.07
2023-05-05T14:53:52.837Z,30.33
2023-05-05T14:56:22.595Z,30.53
2023-05-05T14:58:49.580Z,30.98
2023-05-05T15:01:16.688Z,31.20
2023-05-05T15:03:43.771Z,30.90
2023-05-05T15:06:10.783Z,30.92
2023-05-05T15:08:38.934Z,31.08
2023-05-05T15:11:06.259Z,30.63
2023-05-05T15:13:35.352Z,30.75
2023-05-05T15:16:02.416Z,30.56
2023-05-05T15:18:29.307Z,30.77
2023-05-05T15:20:56.176Z,30.38
2023-05-05T15:23:23.261Z,30.22
2023-05-05T15:25:50.333Z,30.36
2023-05-05T15:28:18.588Z,30.56
2023-05-05T15:30:46.820Z,30.36
2023-05-05T15:33:13.731Z,30.46
2023-05-05T15:35:40.612Z,30.45
2023-05-05T15:38:07.707Z,30.52
2023-05-05T15:40:34.761Z,30.87
2023-05-05T15:43:01.749Z,31.50
2023-05-05T15:45:28.631Z,31.00
2023-05-05T15:47:56.861Z,31.27
2023-05-05T15:50:23.902Z,32.09
2023-05-05T15:52:50.864Z,32.25
2023-05-05T15:55:17.885Z,31.79
2023-05-05T15:57:44.866Z,32.20
2023-05-05T16:00:15.164Z,32.93
2023-05-05T16:02:42.214Z,33.24
2023-05-05T16:05:11.172Z,32.88
2023-05-05T16:07:38.621Z,33.36
2023-05-05T16:10:07.523Z,33.59
2023-05-05T16:12:34.561Z,33.27
2023-05-05T16:15:01.537Z,33.12
2023-05-05T16:17:28.558Z,33.39
2023-05-05T16:19:55.822Z,33.51
2023-05-05T16:22:24.063Z,33.95
2023-05-05T16:24:50.980Z,33.96
2023-05-05T16:27:17.877Z,33.99
2023-05-05T16:29:44.736Z,34.27
2023-05-05T16:32:11.674Z,35.64
2023-05-05T16:34:38.590Z,36.19
2023-05-05T16:37:05.543Z,36.69
2023-05-05T16:39:33.894Z,37.29
2023-05-05T16:42:00.762Z,38.29
2023-05-05T16:44:27.620Z,38.47
2023-05-05T16:46:54.546Z,38.91
2023-05-05T16:49:23.982Z,38.47
2023-05-05T16:51:53.310Z,40.49
2023-05-05T16:54:20.227Z,40.02
2023-05-05T16:56:48.488Z,40.16
2023-05-05T16:59:16.937Z,42.41
2023-05-05T17:01:43.948Z,44.02
2023-05-05T17:04:11.791Z,47.29
2023-05-05T17:06:38.731Z,46.98
2023-05-05T17:09:06.240Z,47.68
2023-05-05T17:11:33.152Z,48.36
2023-05-05T17:14:01.555Z,48.43
2023-05-05T17:16:28.573Z,48.68
2023-05-05T17:18:55.580Z,51.04
2023-05-05T17:21:23.183Z,51.38
2023-05-05T17:23:50.238Z,51.40
2023-05-05T17:26:17.183Z,51.75
2023-05-05T17:28:44.058Z,52.34
2023-05-05T17:31:12.492Z,52.60
2023-05-05T17:33:39.351Z,53.15
2023-05-05T17:36:07.236Z,52.68
2023-05-05T17:38:34.123Z,52.93
2023-05-05T17:41:01.048Z,53.32
2023-05-05T17:43:27.904Z,54.30
2023-05-05T17:45:54.916Z,54.03
2023-05-05T17:48:23.265Z,54.08
2023-05-05T17:50:50.300Z,54.12
2023-05-05T17:53:17.228Z,54.44
2023-05-05T17:55:45.710Z,53.92
2023-05-05T17:58:12.631Z,54.04
2023-05-05T18:00:39.559Z,54.12
2023-05-05T18:03:06.532Z,54.17
2023-05-05T18:05:35.223Z,53.76
2023-05-05T18:08:02.397Z,54.82
2023-05-05T18:10:29.428Z,54.25
2023-05-05T18:12:56.356Z,54.20
2023-05-05T18:15:23.616Z,54.53
2023-05-05T18:17:50.532Z,54.03
2023-05-05T18:20:18.195Z,54.47
2023-05-05T18:22:46.866Z,54.77
2023-05-05T18:25:13.969Z,55.40
2023-05-05T18:27:41.534Z,54.80
2023-05-05T18:30:09.529Z,54.44
2023-05-05T18:32:37.312Z,54.72
2023-05-05T18:35:05.722Z,54.53
2023-05-05T18:37:32.680Z,54.77
2023-05-05T18:40:00.986Z,55.09
2023-05-05T18:42:27.855Z,55.46
2023-05-05T18:44:54.704Z,54.98
2023-05-05T18:47:21.750Z,55.30
2023-05-05T18:49:49.660Z,55.13
2023-05-05T18:52:16.840Z,55.61
2023-05-05T18:54:43.803Z,55.99
2023-05-05T18:57:12.112Z,55.58
2023-05-05T18:59:38.977Z,55.90
2023-05-05T19:02:07.777Z,56.10
2023-05-05T19:04:37.840Z,56.13
2023-05-05T19:07:05.122Z,55.66
2023-05-05T19:09:32.092Z,55.58
2023-05-05T19:11:59.123Z,55.33
2023-05-05T19:14:27.348Z,55.44
2023-05-05T19:16:55.765Z,55.29
2023-05-05T19:19:22.983Z,55.33
2023-05-05T19:21:49.907Z,55.50
2023-05-05T19:24:17.069Z,55.86
2023-05-05T19:26:44.183Z,55.95
2023-05-05T19:29:11.158Z,55.53
2023-05-05T19:31:39.395Z,55.16
2023-05-05T19:34:06.389Z,55.71
2023-05-05T19:36:34.529Z,55.74
2023-05-05T19:39:03.644Z,55.81
2023-05-05T19:41:30.923Z,55.46
2023-05-05T19:43:57.971Z,55.91
2023-05-05T19:46:26.456Z,55.50
2023-05-05T19:48:54.853Z,55.91
2023-05-05T19:51:21.951Z,55.89
2023-05-05T19:53:48.916Z,56.01
2023-05-05T19:56:17.007Z,56.36
2023-05-05T19:58:55.429Z,56.48
2023-05-05T20:01:22.823Z,57.35
2023-05-05T20:03:49.916Z,57.32
2023-05-05T20:06:18.283Z,57.60
2023-05-05T20:08:45.350Z,57.84
2023-05-05T20:11:13.655Z,58.10
2023-05-05T20:13:40.651Z,58.14
2023-05-05T20:16:08.222Z,58.29
2023-05-05T20:18:35.214Z,58.20
2023-05-05T20:21:02.486Z,58.73
2023-05-05T20:23:30.995Z,58.94
2023-05-05T20:25:58.916Z,58.78
2023-05-05T20:28:25.834Z,58.80
2023-05-05T20:30:52.928Z,58.92
2023-05-05T20:33:20.000Z,58.81
2023-05-05T20:35:47.562Z,58.78
2023-05-05T20:38:14.526Z,58.98
2023-05-05T20:40:42.741Z,58.92
2023-05-05T20:43:09.625Z,59.09
2023-05-05T20:45:37.064Z,59.33
2023-05-05T20:48:05.221Z,59.71
2023-05-05T20:50:32.283Z,59.96
2023-05-05T20:52:59.238Z,59.98
2023-05-05T20:55:26.429Z,60.09
2023-05-05T20:57:54.750Z,59.83
2023-05-05T21:00:21.951Z,59.78
2023-05-05T21:02:48.926Z,59.88
2023-05-05T21:05:15.995Z,59.70
2023-05-05T21:07:43.025Z,59.78
2023-05-05T21:10:11.120Z,59.30
2023-05-05T21:12:39.711Z,59.77
2023-05-05T21:15:10.087Z,59.90
2023-05-05T21:17:37.323Z,59.65
2023-05-05T21:20:05.412Z,59.99
2023-05-05T21:22:32.346Z,59.92
2023-05-05T21:25:10.590Z,59.70
2023-05-05T21:27:37.495Z,59.71
2023-05-05T21:30:06.755Z,59.70
2023-05-05T21:32:36.895Z,59.48
2023-05-05T21:35:05.996Z,59.05
2023-05-05T21:37:33.241Z,59.20
2023-05-05T21:40:00.223Z,59.47
2023-05-05T21:42:30.361Z,59.04
2023-05-05T21:44:57.294Z,59.27
2023-05-05T21:47:24.723Z,59.31
2023-05-05T21:50:00.746Z,59.37
2023-05-05T21:52:27.811Z,59.66
2023-05-05T21:54:54.713Z,59.83
2023-05-05T21:57:21.602Z,59.81
2023-05-05T21:59:48.788Z,59.62
2023-05-05T22:02:15.663Z,59.69
2023-05-05T22:04:42.718Z,59.41
2023-05-05T22:07:31.072Z,59.71
2023-05-05T22:10:11.430Z,59.89
2023-05-05T22:12:38.720Z,60.03
2023-05-05T22:15:07.767Z,59.93
2023-05-05T22:17:34.941Z,59.74
2023-05-05T22:20:01.889Z,60.01
2023-05-05T22:22:30.245Z,59.86
2023-05-05T22:24:57.196Z,60.06
2023-05-05T22:27:24.778Z,59.73
2023-05-05T22:29:51.659Z,59.76
2023-05-05T22:32:20.358Z,59.94
2023-05-05T22:34:47.402Z,59.84
2023-05-05T22:37:14.614Z,59.85
2023-05-05T22:39:42.852Z,59.88
2023-05-05T22:42:09.821Z,59.62
2023-05-05T22:44:36.739Z,59.66
2023-05-05T22:47:03.854Z,59.46
2023-05-05T22:49:31.603Z,59.33
2023-05-05T22:51:58.582Z,59.75
2023-05-05T22:54:25.640Z,59.38
2023-05-05T22:56:53.846Z,59.44
2023-05-05T22:59:20.757Z,59.54
2023-05-05T23:01:47.640Z,59.61
2023-05-05T23:04:14.700Z,59.69
2023-05-05T23:06:41.760Z,59.65
2023-05-05T23:09:09.177Z,59.38
2023-05-05T23:11:36.151Z,59.06
2023-05-05T23:14:04.410Z,58.78
2023-05-05T23:16:31.486Z,58.81
2023-05-05T23:18:58.396Z,58.63
2023-05-05T23:21:25.406Z,58.65
2023-05-05T23:23:52.375Z,58.88
2023-05-05T23:26:19.319Z,58.56
2023-05-05T23:28:46.269Z,58.69
2023-05-05T23:31:14.523Z,58.94
2023-05-05T23:33:41.428Z,58.56
2023-05-05T23:36:09.094Z,58.86
2023-05-05T23:38:36.060Z,58.66
2023-05-05T23:41:02.968Z,58.57
2023-05-05T23:43:29.896Z,58.42
2023-05-05T23:45:56.907Z,58.40
2023-05-05T23:48:25.394Z,58.60
2023-05-05T23:50:52.722Z,58.34
2023-05-05T23:53:19.625Z,58.51
2023-05-05T23:55:46.556Z,58.64
2023-05-05T23:58:13.502Z,58.58
